sensor_id;sensor_type;location;lat;lon;timestamp;P1;durP1;ratioP1;P2;durP2;ratioP2
52740;SDS011;38634;52.138;9.912;2023-12-22T00:01:25;18.98;;;4.70;;
52740;SDS011;38634;52.138;9.912;2023-12-22T00:04:09;19.40;;;4.18;;
52740;SDS011;38634;52.138;9.912;2023-12-22T00:06:54;25.52;;;5.53;;
52740;SDS011;38634;52.138;9.912;2023-12-22T00:09:38;19.88;;;4.28;;
52740;SDS011;38634;52.138;9.912;2023-12-22T00:12:23;21.20;;;4.63;;
52740;SDS011;38634;52.138;9.912;2023-12-22T00:15:07;18.20;;;4.03;;
52740;SDS011;38634;52.138;9.912;2023-12-22T00:17:52;22.75;;;4.90;;
52740;SDS011;38634;52.138;9.912;2023-12-22T00:20:37;20.40;;;4.40;;
52740;SDS011;38634;52.138;9.912;2023-12-22T00:23:22;24.60;;;5.25;;
52740;SDS011;38634;52.138;9.912;2023-12-22T00:26:06;20.13;;;4.15;;
52740;SDS011;38634;52.138;9.912;2023-12-22T00:28:51;21.80;;;4.45;;
52740;SDS011;38634;52.138;9.912;2023-12-22T00:31:35;23.63;;;4.85;;
52740;SDS011;38634;52.138;9.912;2023-12-22T00:34:21;21.98;;;4.90;;
52740;SDS011;38634;52.138;9.912;2023-12-22T00:37:06;24.42;;;4.75;;
52740;SDS011;38634;52.138;9.912;2023-12-22T00:39:51;24.05;;;4.68;;
52740;SDS011;38634;52.138;9.912;2023-12-22T00:42:35;20.35;;;3.95;;
52740;SDS011;38634;52.138;9.912;2023-12-22T00:45:20;22.88;;;4.45;;
52740;SDS011;38634;52.138;9.912;2023-12-22T00:48:04;39.05;;;5.80;;
52740;SDS011;38634;52.138;9.912;2023-12-22T00:50:49;21.48;;;4.53;;
52740;SDS011;38634;52.138;9.912;2023-12-22T00:53:33;36.25;;;6.82;;
52740;SDS011;38634;52.138;9.912;2023-12-22T00:56:18;22.02;;;4.47;;
52740;SDS011;38634;52.138;9.912;2023-12-22T00:59:03;24.08;;;4.65;;
52740;SDS011;38634;52.138;9.912;2023-12-22T01:01:47;22.85;;;4.60;;
52740;SDS011;38634;52.138;9.912;2023-12-22T01:04:32;27.33;;;5.10;;
52740;SDS011;38634;52.138;9.912;2023-12-22T01:07:16;24.08;;;4.78;;
52740;SDS011;38634;52.138;9.912;2023-12-22T01:10:02;23.20;;;4.57;;
52740;SDS011;38634;52.138;9.912;2023-12-22T01:12:47;18.85;;;4.03;;
52740;SDS011;38634;52.138;9.912;2023-12-22T01:15:53;22.75;;;4.45;;
52740;SDS011;38634;52.138;9.912;2023-12-22T01:22:11;21.85;;;4.65;;
52740;SDS011;38634;52.138;9.912;2023-12-22T01:25:05;19.67;;;4.10;;
52740;SDS011;38634;52.138;9.912;2023-12-22T01:27:49;18.92;;;4.18;;
52740;SDS011;38634;52.138;9.912;2023-12-22T01:30:35;26.58;;;4.82;;
52740;SDS011;38634;52.138;9.912;2023-12-22T01:33:23;20.95;;;4.15;;
52740;SDS011;38634;52.138;9.912;2023-12-22T01:36:08;22.50;;;4.22;;
52740;SDS011;38634;52.138;9.912;2023-12-22T01:38:52;17.45;;;5.13;;
52740;SDS011;38634;52.138;9.912;2023-12-22T01:41:37;20.52;;;5.30;;
52740;SDS011;38634;52.138;9.912;2023-12-22T01:44:25;17.67;;;3.95;;
52740;SDS011;38634;52.138;9.912;2023-12-22T01:50:58;22.48;;;4.60;;
52740;SDS011;38634;52.138;9.912;2023-12-22T01:53:53;17.95;;;4.05;;
52740;SDS011;38634;52.138;9.912;2023-12-22T01:56:37;23.40;;;4.95;;
52740;SDS011;38634;52.138;9.912;2023-12-22T01:59:22;26.08;;;5.55;;
52740;SDS011;38634;52.138;9.912;2023-12-22T02:02:16;20.33;;;4.22;;
52740;SDS011;38634;52.138;9.912;2023-12-22T02:05:00;19.15;;;4.47;;
52740;SDS011;38634;52.138;9.912;2023-12-22T02:07:45;15.98;;;3.58;;
52740;SDS011;38634;52.138;9.912;2023-12-22T02:10:30;25.88;;;6.95;;
52740;SDS011;38634;52.138;9.912;2023-12-22T02:13:14;24.70;;;5.13;;
52740;SDS011;38634;52.138;9.912;2023-12-22T02:16:04;24.95;;;5.30;;
52740;SDS011;38634;52.138;9.912;2023-12-22T02:20:07;22.83;;;5.85;;
52740;SDS011;38634;52.138;9.912;2023-12-22T02:22:56;21.08;;;4.60;;
52740;SDS011;38634;52.138;9.912;2023-12-22T02:25:55;17.65;;;4.18;;
52740;SDS011;38634;52.138;9.912;2023-12-22T02:29:36;18.58;;;4.43;;
52740;SDS011;38634;52.138;9.912;2023-12-22T02:36:03;17.92;;;4.13;;
52740;SDS011;38634;52.138;9.912;2023-12-22T02:39:09;16.90;;;3.85;;
52740;SDS011;38634;52.138;9.912;2023-12-22T02:42:04;17.85;;;3.97;;
52740;SDS011;38634;52.138;9.912;2023-12-22T02:48:15;21.60;;;5.63;;
52740;SDS011;38634;52.138;9.912;2023-12-22T02:51:00;17.75;;;3.95;;
52740;SDS011;38634;52.138;9.912;2023-12-22T02:53:52;16.73;;;3.75;;
52740;SDS011;38634;52.138;9.912;2023-12-22T02:56:46;21.67;;;4.55;;
52740;SDS011;38634;52.138;9.912;2023-12-22T02:59:48;21.55;;;5.13;;
52740;SDS011;38634;52.138;9.912;2023-12-22T03:02:33;20.80;;;4.88;;
52740;SDS011;38634;52.138;9.912;2023-12-22T03:05:27;18.83;;;4.15;;
52740;SDS011;38634;52.138;9.912;2023-12-22T03:08:17;22.05;;;4.63;;
52740;SDS011;38634;52.138;9.912;2023-12-22T13:53:27;59.53;;;9.32;;
52740;SDS011;38634;52.138;9.912;2023-12-22T13:56:12;50.53;;;9.02;;
52740;SDS011;38634;52.138;9.912;2023-12-22T13:58:56;55.40;;;10.63;;
52740;SDS011;38634;52.138;9.912;2023-12-22T14:01:41;55.03;;;11.07;;
52740;SDS011;38634;52.138;9.912;2023-12-22T14:04:26;52.55;;;10.20;;
52740;SDS011;38634;52.138;9.912;2023-12-22T14:07:10;35.45;;;7.38;;
52740;SDS011;38634;52.138;9.912;2023-12-22T14:09:55;47.75;;;8.85;;
52740;SDS011;38634;52.138;9.912;2023-12-22T14:12:40;56.80;;;11.20;;
52740;SDS011;38634;52.138;9.912;2023-12-22T14:15:25;49.63;;;10.20;;
52740;SDS011;38634;52.138;9.912;2023-12-22T14:18:12;36.65;;;7.97;;
52740;SDS011;38634;52.138;9.912;2023-12-22T14:20:57;57.47;;;11.45;;
52740;SDS011;38634;52.138;9.912;2023-12-22T14:23:43;64.65;;;12.77;;
52740;SDS011;38634;52.138;9.912;2023-12-22T14:26:27;39.70;;;8.07;;
52740;SDS011;38634;52.138;9.912;2023-12-22T14:29:12;34.35;;;6.75;;
52740;SDS011;38634;52.138;9.912;2023-12-22T14:31:57;55.45;;;9.77;;
52740;SDS011;38634;52.138;9.912;2023-12-22T14:34:44;75.95;;;12.85;;
52740;SDS011;38634;52.138;9.912;2023-12-22T14:37:30;46.78;;;8.23;;
52740;SDS011;38634;52.138;9.912;2023-12-22T14:40:14;33.00;;;6.32;;
52740;SDS011;38634;52.138;9.912;2023-12-22T14:42:59;58.22;;;9.90;;
52740;SDS011;38634;52.138;9.912;2023-12-22T14:45:45;53.38;;;9.10;;
52740;SDS011;38634;52.138;9.912;2023-12-22T14:48:30;47.33;;;8.35;;
52740;SDS011;38634;52.138;9.912;2023-12-22T14:51:18;37.03;;;6.82;;
52740;SDS011;38634;52.138;9.912;2023-12-22T14:54:03;73.20;;;12.40;;
52740;SDS011;38634;52.138;9.912;2023-12-22T14:56:49;68.10;;;11.90;;
52740;SDS011;38634;52.138;9.912;2023-12-22T14:59:34;44.13;;;7.95;;
52740;SDS011;38634;52.138;9.912;2023-12-22T15:02:18;45.05;;;8.27;;
52740;SDS011;38634;52.138;9.912;2023-12-22T15:05:03;66.07;;;11.30;;
52740;SDS011;38634;52.138;9.912;2023-12-22T15:07:48;66.10;;;11.10;;
52740;SDS011;38634;52.138;9.912;2023-12-22T15:10:33;43.63;;;7.90;;
52740;SDS011;38634;52.138;9.912;2023-12-22T15:13:17;38.22;;;7.13;;
52740;SDS011;38634;52.138;9.912;2023-12-22T15:16:05;63.17;;;11.10;;
52740;SDS011;38634;52.138;9.912;2023-12-22T15:18:50;64.43;;;10.73;;
52740;SDS011;38634;52.138;9.912;2023-12-22T15:21:35;41.35;;;7.40;;
52740;SDS011;38634;52.138;9.912;2023-12-22T15:24:20;46.97;;;8.38;;
52740;SDS011;38634;52.138;9.912;2023-12-22T15:27:07;76.28;;;12.63;;
52740;SDS011;38634;52.138;9.912;2023-12-22T15:29:51;63.33;;;11.02;;
52740;SDS011;38634;52.138;9.912;2023-12-22T15:32:36;37.92;;;7.20;;
52740;SDS011;38634;52.138;9.912;2023-12-22T15:35:20;35.00;;;7.60;;
52740;SDS011;38634;52.138;9.912;2023-12-22T15:38:05;62.95;;;10.90;;
52740;SDS011;38634;52.138;9.912;2023-12-22T15:41:09;77.85;;;12.65;;
52740;SDS011;38634;52.138;9.912;2023-12-22T15:43:54;67.53;;;11.18;;
52740;SDS011;38634;52.138;9.912;2023-12-22T15:46:45;72.70;;;11.98;;
52740;SDS011;38634;52.138;9.912;2023-12-22T15:49:36;36.80;;;6.97;;
52740;SDS011;38634;52.138;9.912;2023-12-22T15:52:26;57.72;;;9.93;;
52740;SDS011;38634;52.138;9.912;2023-12-22T15:55:15;44.17;;;7.63;;
52740;SDS011;38634;52.138;9.912;2023-12-22T15:57:59;63.50;;;10.48;;
52740;SDS011;38634;52.138;9.912;2023-12-22T16:00:44;72.10;;;11.82;;
52740;SDS011;38634;52.138;9.912;2023-12-22T16:03:38;58.58;;;10.65;;
52740;SDS011;38634;52.138;9.912;2023-12-22T16:06:23;79.75;;;13.27;;
52740;SDS011;38634;52.138;9.912;2023-12-22T16:09:08;78.13;;;12.27;;
52740;SDS011;38634;52.138;9.912;2023-12-22T16:11:52;41.22;;;7.22;;
52740;SDS011;38634;52.138;9.912;2023-12-22T16:14:37;43.17;;;7.57;;
52740;SDS011;38634;52.138;9.912;2023-12-22T16:17:22;57.25;;;9.98;;
52740;SDS011;38634;52.138;9.912;2023-12-22T16:20:06;63.90;;;10.85;;
52740;SDS011;38634;52.138;9.912;2023-12-22T16:23:04;43.08;;;7.70;;
52740;SDS011;38634;52.138;9.912;2023-12-22T16:25:49;60.95;;;10.52;;
52740;SDS011;38634;52.138;9.912;2023-12-22T16:29:04;44.25;;;7.80;;
52740;SDS011;38634;52.138;9.912;2023-12-22T16:31:49;39.53;;;7.05;;
52740;SDS011;38634;52.138;9.912;2023-12-22T16:34:34;38.22;;;6.68;;
52740;SDS011;38634;52.138;9.912;2023-12-22T16:37:18;73.10;;;11.57;;
52740;SDS011;38634;52.138;9.912;2023-12-22T16:40:03;75.82;;;12.23;;
52740;SDS011;38634;52.138;9.912;2023-12-22T16:42:57;39.90;;;6.57;;
52740;SDS011;38634;52.138;9.912;2023-12-22T16:45:44;54.92;;;9.02;;
52740;SDS011;38634;52.138;9.912;2023-12-22T16:48:33;68.28;;;11.18;;
52740;SDS011;38634;52.138;9.912;2023-12-22T16:51:18;49.85;;;8.57;;
52740;SDS011;38634;52.138;9.912;2023-12-22T16:54:05;59.47;;;9.70;;
52740;SDS011;38634;52.138;9.912;2023-12-22T16:56:49;61.70;;;10.25;;
52740;SDS011;38634;52.138;9.912;2023-12-22T16:59:34;61.38;;;10.27;;
52740;SDS011;38634;52.138;9.912;2023-12-22T17:02:18;33.63;;;6.07;;
52740;SDS011;38634;52.138;9.912;2023-12-22T17:05:03;55.40;;;9.15;;
52740;SDS011;38634;52.138;9.912;2023-12-22T17:07:48;72.93;;;11.65;;
52740;SDS011;38634;52.138;9.912;2023-12-22T17:10:33;64.57;;;10.95;;
52740;SDS011;38634;52.138;9.912;2023-12-22T17:13:17;44.75;;;7.97;;
52740;SDS011;38634;52.138;9.912;2023-12-22T17:16:02;53.05;;;8.98;;
52740;SDS011;38634;52.138;9.912;2023-12-22T17:18:48;63.40;;;10.63;;
52740;SDS011;38634;52.138;9.912;2023-12-22T17:21:32;54.53;;;9.20;;
52740;SDS011;38634;52.138;9.912;2023-12-22T17:24:18;48.95;;;9.13;;
52740;SDS011;38634;52.138;9.912;2023-12-22T17:27:03;42.47;;;7.65;;
52740;SDS011;38634;52.138;9.912;2023-12-22T17:30:08;73.35;;;11.85;;
52740;SDS011;38634;52.138;9.912;2023-12-22T17:32:54;59.03;;;10.40;;
52740;SDS011;38634;52.138;9.912;2023-12-22T17:35:49;41.00;;;7.32;;
52740;SDS011;38634;52.138;9.912;2023-12-22T17:38:46;75.38;;;12.13;;
52740;SDS011;38634;52.138;9.912;2023-12-22T17:41:31;46.50;;;7.95;;
52740;SDS011;38634;52.138;9.912;2023-12-22T17:44:15;45.05;;;7.88;;
52740;SDS011;38634;52.138;9.912;2023-12-22T17:47:00;50.97;;;8.57;;
52740;SDS011;38634;52.138;9.912;2023-12-22T17:49:52;60.53;;;10.35;;
52740;SDS011;38634;52.138;9.912;2023-12-22T17:52:37;54.60;;;8.88;;
52740;SDS011;38634;52.138;9.912;2023-12-22T17:55:28;49.33;;;8.23;;
52740;SDS011;38634;52.138;9.912;2023-12-22T17:58:13;69.00;;;11.57;;
52740;SDS011;38634;52.138;9.912;2023-12-22T18:01:00;52.85;;;8.93;;
52740;SDS011;38634;52.138;9.912;2023-12-22T18:03:45;48.83;;;8.40;;
52740;SDS011;38634;52.138;9.912;2023-12-22T18:06:36;65.78;;;11.20;;
52740;SDS011;38634;52.138;9.912;2023-12-22T18:09:22;41.67;;;7.57;;
52740;SDS011;38634;52.138;9.912;2023-12-22T18:12:11;62.85;;;10.07;;
52740;SDS011;38634;52.138;9.912;2023-12-22T18:14:56;45.28;;;7.85;;
52740;SDS011;38634;52.138;9.912;2023-12-22T18:17:41;31.65;;;7.68;;
52740;SDS011;38634;52.138;9.912;2023-12-22T18:20:25;18.67;;;4.15;;
52740;SDS011;38634;52.138;9.912;2023-12-22T18:23:10;25.58;;;5.43;;
52740;SDS011;38634;52.138;9.912;2023-12-22T18:25:55;22.67;;;4.85;;
52740;SDS011;38634;52.138;9.912;2023-12-22T18:28:39;20.30;;;4.60;;
52740;SDS011;38634;52.138;9.912;2023-12-22T18:31:24;24.20;;;5.07;;
52740;SDS011;38634;52.138;9.912;2023-12-22T18:34:09;20.55;;;4.57;;
52740;SDS011;38634;52.138;9.912;2023-12-22T18:36:54;21.83;;;4.70;;
52740;SDS011;38634;52.138;9.912;2023-12-22T18:39:39;19.52;;;4.53;;
52740;SDS011;38634;52.138;9.912;2023-12-22T18:42:24;15.55;;;3.95;;
52740;SDS011;38634;52.138;9.912;2023-12-22T18:45:09;21.25;;;4.43;;
52740;SDS011;38634;52.138;9.912;2023-12-22T18:47:53;22.45;;;4.70;;
52740;SDS011;38634;52.138;9.912;2023-12-22T18:50:38;23.42;;;5.05;;
52740;SDS011;38634;52.138;9.912;2023-12-22T18:53:22;23.25;;;4.80;;
52740;SDS011;38634;52.138;9.912;2023-12-22T18:56:07;21.00;;;4.43;;
52740;SDS011;38634;52.138;9.912;2023-12-22T18:58:52;22.65;;;4.68;;
52740;SDS011;38634;52.138;9.912;2023-12-22T19:01:37;21.05;;;4.47;;
52740;SDS011;38634;52.138;9.912;2023-12-22T19:04:21;24.33;;;4.95;;
52740;SDS011;38634;52.138;9.912;2023-12-22T19:07:06;21.70;;;4.57;;
52740;SDS011;38634;52.138;9.912;2023-12-22T19:09:50;19.25;;;4.55;;
52740;SDS011;38634;52.138;9.912;2023-12-22T19:12:36;20.90;;;4.70;;
52740;SDS011;38634;52.138;9.912;2023-12-22T19:15:23;21.85;;;4.68;;
52740;SDS011;38634;52.138;9.912;2023-12-22T19:18:08;22.13;;;4.72;;
52740;SDS011;38634;52.138;9.912;2023-12-22T19:20:53;22.45;;;4.68;;
52740;SDS011;38634;52.138;9.912;2023-12-22T19:23:37;32.78;;;6.30;;
52740;SDS011;38634;52.138;9.912;2023-12-22T19:26:22;21.25;;;4.70;;
52740;SDS011;38634;52.138;9.912;2023-12-22T19:29:06;19.48;;;4.30;;
52740;SDS011;38634;52.138;9.912;2023-12-22T19:31:51;24.10;;;4.70;;
52740;SDS011;38634;52.138;9.912;2023-12-22T19:34:38;15.70;;;3.90;;
52740;SDS011;38634;52.138;9.912;2023-12-22T19:37:22;23.15;;;5.03;;
52740;SDS011;38634;52.138;9.912;2023-12-22T19:40:07;14.90;;;3.60;;
52740;SDS011;38634;52.138;9.912;2023-12-22T19:42:52;21.65;;;4.90;;
52740;SDS011;38634;52.138;9.912;2023-12-22T19:45:37;22.88;;;4.88;;
52740;SDS011;38634;52.138;9.912;2023-12-22T19:48:22;21.38;;;4.63;;
52740;SDS011;38634;52.138;9.912;2023-12-22T19:51:06;23.92;;;4.97;;
52740;SDS011;38634;52.138;9.912;2023-12-22T19:53:51;20.90;;;4.45;;
52740;SDS011;38634;52.138;9.912;2023-12-22T19:56:35;17.42;;;4.00;;
52740;SDS011;38634;52.138;9.912;2023-12-22T19:59:20;22.35;;;4.68;;
52740;SDS011;38634;52.138;9.912;2023-12-22T20:02:05;16.15;;;3.80;;
52740;SDS011;38634;52.138;9.912;2023-12-22T20:04:49;22.38;;;4.70;;
52740;SDS011;38634;52.138;9.912;2023-12-22T20:07:34;14.15;;;3.75;;
52740;SDS011;38634;52.138;9.912;2023-12-22T20:10:19;21.40;;;5.15;;
52740;SDS011;38634;52.138;9.912;2023-12-22T20:13:04;19.83;;;6.43;;
52740;SDS011;38634;52.138;9.912;2023-12-22T20:15:48;22.05;;;5.38;;
52740;SDS011;38634;52.138;9.912;2023-12-22T20:18:33;24.00;;;6.80;;
52740;SDS011;38634;52.138;9.912;2023-12-22T20:21:18;23.00;;;5.85;;
52740;SDS011;38634;52.138;9.912;2023-12-22T20:24:03;26.75;;;5.63;;
52740;SDS011;38634;52.138;9.912;2023-12-22T20:26:48;22.45;;;5.50;;
52740;SDS011;38634;52.138;9.912;2023-12-22T20:29:32;24.15;;;5.22;;
52740;SDS011;38634;52.138;9.912;2023-12-22T20:32:17;22.55;;;5.03;;
52740;SDS011;38634;52.138;9.912;2023-12-22T20:35:02;25.13;;;5.13;;
52740;SDS011;38634;52.138;9.912;2023-12-22T20:37:48;39.72;;;6.50;;
52740;SDS011;38634;52.138;9.912;2023-12-22T20:40:33;26.98;;;5.18;;
52740;SDS011;38634;52.138;9.912;2023-12-22T20:43:17;23.63;;;5.00;;
52740;SDS011;38634;52.138;9.912;2023-12-22T20:46:02;22.02;;;4.70;;
52740;SDS011;38634;52.138;9.912;2023-12-22T20:48:48;22.23;;;4.82;;
52740;SDS011;38634;52.138;9.912;2023-12-22T20:51:38;20.20;;;4.53;;
52740;SDS011;38634;52.138;9.912;2023-12-22T20:54:24;20.02;;;4.90;;
52740;SDS011;38634;52.138;9.912;2023-12-22T20:57:08;24.05;;;5.15;;
52740;SDS011;38634;52.138;9.912;2023-12-22T20:59:53;17.70;;;4.13;;
52740;SDS011;38634;52.138;9.912;2023-12-22T21:02:38;19.58;;;4.53;;
52740;SDS011;38634;52.138;9.912;2023-12-22T21:05:23;16.48;;;4.25;;
52740;SDS011;38634;52.138;9.912;2023-12-22T21:08:08;19.25;;;4.72;;
52740;SDS011;38634;52.138;9.912;2023-12-22T21:10:54;22.75;;;5.30;;
52740;SDS011;38634;52.138;9.912;2023-12-22T21:13:38;19.88;;;4.82;;
52740;SDS011;38634;52.138;9.912;2023-12-22T21:16:25;17.23;;;4.40;;
52740;SDS011;38634;52.138;9.912;2023-12-22T21:19:10;17.75;;;4.10;;
52740;SDS011;38634;52.138;9.912;2023-12-22T21:21:54;21.95;;;4.78;;
52740;SDS011;38634;52.138;9.912;2023-12-22T21:24:39;24.25;;;5.35;;
52740;SDS011;38634;52.138;9.912;2023-12-22T21:27:23;20.85;;;4.40;;
52740;SDS011;38634;52.138;9.912;2023-12-22T21:30:10;21.38;;;4.72;;
52740;SDS011;38634;52.138;9.912;2023-12-22T21:32:55;21.40;;;4.60;;
52740;SDS011;38634;52.138;9.912;2023-12-22T21:35:40;17.83;;;4.20;;
52740;SDS011;38634;52.138;9.912;2023-12-22T21:38:25;22.08;;;4.72;;
52740;SDS011;38634;52.138;9.912;2023-12-22T21:41:12;20.80;;;4.65;;
52740;SDS011;38634;52.138;9.912;2023-12-22T21:44:01;22.67;;;4.97;;
52740;SDS011;38634;52.138;9.912;2023-12-22T21:46:46;22.25;;;5.07;;
52740;SDS011;38634;52.138;9.912;2023-12-22T21:49:30;22.33;;;4.68;;
52740;SDS011;38634;52.138;9.912;2023-12-22T21:52:15;28.80;;;5.50;;
52740;SDS011;38634;52.138;9.912;2023-12-22T21:55:00;18.33;;;4.10;;
52740;SDS011;38634;52.138;9.912;2023-12-22T21:57:44;23.98;;;4.93;;
52740;SDS011;38634;52.138;9.912;2023-12-22T22:00:29;18.95;;;4.53;;
52740;SDS011;38634;52.138;9.912;2023-12-22T22:03:14;25.02;;;5.43;;
52740;SDS011;38634;52.138;9.912;2023-12-22T22:05:58;23.67;;;4.90;;
52740;SDS011;38634;52.138;9.912;2023-12-22T22:08:43;20.95;;;4.65;;
52740;SDS011;38634;52.138;9.912;2023-12-22T22:11:28;26.92;;;5.38;;
52740;SDS011;38634;52.138;9.912;2023-12-22T22:14:12;22.27;;;4.70;;
52740;SDS011;38634;52.138;9.912;2023-12-22T22:16:58;22.27;;;4.78;;
52740;SDS011;38634;52.138;9.912;2023-12-22T22:19:42;22.83;;;5.05;;
52740;SDS011;38634;52.138;9.912;2023-12-22T22:22:27;23.02;;;4.85;;
52740;SDS011;38634;52.138;9.912;2023-12-22T22:25:11;18.65;;;4.30;;
52740;SDS011;38634;52.138;9.912;2023-12-22T22:27:56;20.98;;;4.95;;
52740;SDS011;38634;52.138;9.912;2023-12-22T22:30:41;21.70;;;4.88;;
52740;SDS011;38634;52.138;9.912;2023-12-22T22:33:25;28.02;;;5.43;;
52740;SDS011;38634;52.138;9.912;2023-12-22T22:36:10;18.23;;;4.15;;
52740;SDS011;38634;52.138;9.912;2023-12-22T22:38:54;18.73;;;4.15;;
52740;SDS011;38634;52.138;9.912;2023-12-22T22:41:42;16.05;;;3.72;;
52740;SDS011;38634;52.138;9.912;2023-12-22T22:44:27;25.52;;;5.05;;
52740;SDS011;38634;52.138;9.912;2023-12-22T22:47:11;20.17;;;4.55;;
52740;SDS011;38634;52.138;9.912;2023-12-22T22:49:56;26.02;;;5.25;;
52740;SDS011;38634;52.138;9.912;2023-12-22T22:52:41;20.65;;;4.82;;
52740;SDS011;38634;52.138;9.912;2023-12-22T22:55:25;22.00;;;4.80;;
52740;SDS011;38634;52.138;9.912;2023-12-22T22:58:12;24.30;;;4.90;;
52740;SDS011;38634;52.138;9.912;2023-12-22T23:00:57;22.75;;;4.65;;
52740;SDS011;38634;52.138;9.912;2023-12-22T23:03:44;22.45;;;4.53;;
52740;SDS011;38634;52.138;9.912;2023-12-22T23:06:29;23.08;;;4.63;;
52740;SDS011;38634;52.138;9.912;2023-12-22T23:09:14;22.42;;;4.65;;
52740;SDS011;38634;52.138;9.912;2023-12-22T23:11:59;23.00;;;4.47;;
52740;SDS011;38634;52.138;9.912;2023-12-22T23:14:44;25.95;;;5.07;;
52740;SDS011;38634;52.138;9.912;2023-12-22T23:17:28;24.50;;;4.88;;
52740;SDS011;38634;52.138;9.912;2023-12-22T23:20:14;24.42;;;4.82;;
52740;SDS011;38634;52.138;9.912;2023-12-22T23:22:58;21.60;;;4.60;;
52740;SDS011;38634;52.138;9.912;2023-12-22T23:25:43;24.23;;;4.65;;
52740;SDS011;38634;52.138;9.912;2023-12-22T23:28:29;22.50;;;4.68;;
52740;SDS011;38634;52.138;9.912;2023-12-22T23:31:14;24.92;;;4.80;;
52740;SDS011;38634;52.138;9.912;2023-12-22T23:33:59;20.98;;;4.97;;
52740;SDS011;38634;52.138;9.912;2023-12-22T23:36:44;23.08;;;4.53;;
52740;SDS011;38634;52.138;9.912;2023-12-22T23:39:28;19.48;;;4.10;;
52740;SDS011;38634;52.138;9.912;2023-12-22T23:42:15;19.08;;;4.22;;
52740;SDS011;38634;52.138;9.912;2023-12-22T23:45:00;23.40;;;4.68;;
52740;SDS011;38634;52.138;9.912;2023-12-22T23:47:44;18.25;;;4.57;;
52740;SDS011;38634;52.138;9.912;2023-12-22T23:50:29;20.50;;;4.32;;
52740;SDS011;38634;52.138;9.912;2023-12-22T23:53:13;23.52;;;4.72;;
52740;SDS011;38634;52.138;9.912;2023-12-22T23:55:58;23.90;;;4.88;;
52740;SDS011;38634;52.138;9.912;2023-12-22T23:58:43;22.35;;;4.78;;
